Time;durP1;ratioP1;P1;durP2;ratioP2;P2;SDS_P1;SDS_P2;PMS_P1;PMS_P2;Temp;Humidity;BMP_temperature;BMP_pressure;BME280_temperature;BME280_humidity;BME280_pressure;Samples;Min_cycle;Max_cycle;Signal;HPM_P1;HPM_P2
2020/12/20 00:01:43;;;;;;;6.68;4.07;;;9.20;96.20;;;;;;5066270;28;20064;-43
2020/12/20 00:04:10;;;;;;;6.72;4.63;;;9.30;96.30;;;;;;5066949;28;20384;-43
2020/12/20 00:06:44;;;;;;;6.25;4.57;;;9.20;96.30;;;;;;5066739;28;20079;-43
2020/12/20 00:09:13;;;;;;;8.05;4.47;;;9.30;96.30;;;;;;5066961;28;20056;-43
2020/12/20 00:11:44;;;;;;;5.15;4.15;;;9.30;96.30;;;;;;5066725;28;20104;-42
2020/12/20 00:16:59;;;;;;;7.65;4.82;;;9.30;96.30;;;;;;5066532;28;20136;-43
2020/12/20 00:19:25;;;;;;;6.97;4.78;;;9.30;96.30;;;;;;5066769;28;20408;-43
2020/12/20 00:22:13;;;;;;;7.22;5.07;;;9.30;96.30;;;;;;5054654;28;20014;-44
2020/12/20 00:24:40;;;;;;;7.60;5.63;;;9.40;96.30;;;;;;5045470;28;20025;-43
2020/12/20 00:27:07;;;;;;;5.57;4.43;;;9.40;96.30;;;;;;5044827;28;20051;-43
2020/12/20 00:29:33;;;;;;;6.10;4.47;;;9.40;96.30;;;;;;5045762;28;20083;-43
2020/12/20 00:32:00;;;;;;;7.32;4.93;;;9.40;96.30;;;;;;5044770;28;20071;-43
2020/12/20 00:34:25;;;;;;;5.78;4.32;;;9.40;96.20;;;;;;5045529;28;20147;-43
2020/12/20 00:36:51;;;;;;;8.27;5.00;;;9.40;96.20;;;;;;5045575;28;20043;-43
2020/12/20 00:39:19;;;;;;;6.47;4.60;;;9.50;96.20;;;;;;5045351;28;20021;-43
2020/12/20 00:41:56;;;;;;;7.78;4.80;;;9.50;96.20;;;;;;5045244;28;20538;-43
2020/12/20 00:44:23;;;;;;;5.43;4.18;;;9.50;96.20;;;;;;5045425;28;20072;-43
2020/12/20 00:46:50;;;;;;;6.35;4.20;;;9.50;96.20;;;;;;5042953;28;20025;-43
2020/12/20 00:49:15;;;;;;;6.82;4.47;;;9.50;96.20;;;;;;5045479;28;20040;-43
2020/12/20 00:51:41;;;;;;;7.20;4.20;;;9.50;96.40;;;;;;5045532;28;20029;-43
2020/12/20 00:54:07;;;;;;;5.72;4.00;;;9.50;96.20;;;;;;5045754;28;20060;-43
2020/12/20 00:56:33;;;;;;;6.93;4.07;;;9.50;96.20;;;;;;5045979;28;20025;-43
2020/12/20 00:58:59;;;;;;;5.82;4.00;;;9.50;96.20;;;;;;5045774;28;20031;-43
2020/12/20 01:01:27;;;;;;;5.85;3.80;;;9.40;96.20;;;;;;5046015;28;20065;-43
2020/12/20 01:03:54;;;;;;;6.43;3.85;;;9.40;96.20;;;;;;5045862;28;20115;-43
2020/12/20 01:06:23;;;;;;;6.57;3.10;;;9.40;96.20;;;;;;5045769;28;20483;-43
2020/12/20 01:08:50;;;;;;;5.22;4.00;;;9.40;96.20;;;;;;5049793;28;20079;-43
2020/12/20 01:11:16;;;;;;;5.85;4.30;;;9.40;96.20;;;;;;5049257;28;20074;-43
2020/12/20 01:13:47;;;;;;;7.30;3.80;;;9.40;96.20;;;;;;5048802;28;20021;-43
2020/12/20 01:16:20;;;;;;;8.30;4.72;;;9.40;96.20;;;;;;5049543;28;20025;-44
2020/12/20 01:18:46;;;;;;;5.95;4.00;;;9.40;96.30;;;;;;5049209;28;20120;-44
2020/12/20 01:21:16;;;;;;;7.50;4.88;;;9.40;96.30;;;;;;5048790;28;20029;-44
2020/12/20 01:23:41;;;;;;;8.57;4.47;;;9.40;96.30;;;;;;5048954;28;20052;-44
2020/12/20 01:26:07;;;;;;;8.63;4.22;;;9.40;96.30;;;;;;5049466;28;20063;-43
2020/12/20 01:28:33;;;;;;;7.65;4.28;;;9.40;96.30;;;;;;5048877;28;20185;-43
2020/12/20 01:30:59;;;;;;;6.45;4.00;;;9.40;96.30;;;;;;5049256;28;20025;-43
2020/12/20 01:33:24;;;;;;;7.90;4.13;;;9.40;96.40;;;;;;5049229;28;20147;-43
2020/12/20 01:35:50;;;;;;;6.70;4.32;;;9.40;96.40;;;;;;5048527;28;20104;-43
2020/12/20 01:38:16;;;;;;;7.50;4.78;;;9.40;96.40;;;;;;5048827;28;20028;-43
2020/12/20 01:40:49;;;;;;;8.30;4.00;;;9.40;96.40;;;;;;5049151;28;20048;-43
2020/12/20 01:43:14;;;;;;;7.18;4.18;;;9.40;96.40;;;;;;5048172;28;20074;-43
2020/12/20 01:45:40;;;;;;;8.57;3.88;;;9.40;96.40;;;;;;5048721;28;20029;-43
2020/12/20 01:48:07;;;;;;;7.43;4.25;;;9.40;96.40;;;;;;5048809;28;20060;-43
2020/12/20 01:50:33;;;;;;;6.65;4.32;;;9.40;96.40;;;;;;5048143;28;20052;-42
2020/12/20 01:52:59;;;;;;;5.82;3.78;;;9.40;96.40;;;;;;5048764;28;20029;-43
2020/12/20 01:55:26;;;;;;;6.43;4.47;;;9.40;96.40;;;;;;5048349;28;20522;-43
2020/12/20 01:57:53;;;;;;;6.45;4.20;;;9.40;96.50;;;;;;5048377;28;20055;-42
2020/12/20 02:00:18;;;;;;;7.10;3.65;;;9.50;96.40;;;;;;5048524;28;20032;-43
2020/12/20 02:02:47;;;;;;;7.20;4.03;;;9.50;96.40;;;;;;5048191;28;20358;-44
2020/12/20 02:05:15;;;;;;;8.60;4.22;;;9.50;96.30;;;;;;5048529;28;20497;-43
2020/12/20 02:07:40;;;;;;;5.05;3.75;;;9.50;96.30;;;;;;5047872;28;20080;-44
2020/12/20 02:10:07;;;;;;;4.50;3.58;;;9.50;96.30;;;;;;5047891;28;20471;-43
2020/12/20 02:12:33;;;;;;;6.53;4.18;;;9.50;96.30;;;;;;5048413;28;20040;-42
2020/12/20 02:14:58;;;;;;;7.93;4.18;;;9.50;96.30;;;;;;5048051;28;20346;-43
2020/12/20 02:17:24;;;;;;;5.85;3.17;;;9.50;96.30;;;;;;5047212;28;20071;-43
2020/12/20 02:19:49;;;;;;;4.13;3.40;;;9.50;96.30;;;;;;5047519;28;20358;-43
2020/12/20 02:22:15;;;;;;;6.05;3.70;;;9.50;96.30;;;;;;5048037;28;20507;-42
2020/12/20 02:24:41;;;;;;;6.38;3.30;;;9.50;96.30;;;;;;5047966;28;20017;-43
2020/12/20 02:27:07;;;;;;;4.50;3.40;;;9.40;96.30;;;;;;5048124;28;20115;-42
2020/12/20 02:29:34;;;;;;;5.68;3.13;;;9.40;96.30;;;;;;5048324;28;20123;-43
2020/12/20 02:31:59;;;;;;;5.38;3.35;;;9.40;96.30;;;;;;5047292;28;20025;-43
2020/12/20 02:34:26;;;;;;;7.07;3.88;;;9.40;96.30;;;;;;5048113;28;20043;-42
2020/12/20 02:36:51;;;;;;;7.05;4.07;;;9.40;96.30;;;;;;5047576;28;20075;-43
2020/12/20 02:39:17;;;;;;;6.88;4.15;;;9.30;96.40;;;;;;5047276;28;20100;-42
2020/12/20 02:41:42;;;;;;;8.05;4.10;;;9.30;96.40;;;;;;5048039;28;20032;-43
2020/12/20 02:44:08;;;;;;;7.38;3.90;;;9.30;96.40;;;;;;5047406;28;20047;-43
2020/12/20 02:46:37;;;;;;;5.38;3.60;;;9.30;96.40;;;;;;5047468;28;20053;-43
2020/12/20 02:49:02;;;;;;;7.40;3.72;;;9.30;96.40;;;;;;5047632;28;20041;-43
2020/12/20 02:51:28;;;;;;;7.38;4.07;;;9.30;96.40;;;;;;5047420;28;20121;-43
2020/12/20 02:53:54;;;;;;;6.45;3.55;;;9.30;96.40;;;;;;5047164;28;20029;-43
2020/12/20 02:56:19;;;;;;;6.38;3.45;;;9.30;96.40;;;;;;5047360;28;20021;-43
2020/12/20 02:58:48;;;;;;;8.60;3.67;;;9.30;96.40;;;;;;5046713;28;20082;-43
2020/12/20 03:01:17;;;;;;;5.57;3.90;;;9.30;96.50;;;;;;5047259;28;20439;-42
2020/12/20 03:03:42;;;;;;;10.95;4.50;;;9.30;96.50;;;;;;5047116;28;20062;-43
2020/12/20 03:06:08;;;;;;;6.45;4.07;;;9.30;96.50;;;;;;5046842;28;20029;-43
2020/12/20 03:08:34;;;;;;;7.47;4.20;;;9.30;96.50;;;;;;5046872;28;20040;-42
2020/12/20 03:11:00;;;;;;;6.43;3.58;;;9.30;96.50;;;;;;5047510;28;20372;-43
2020/12/20 03:13:25;;;;;;;6.50;3.78;;;9.30;96.40;;;;;;5046740;28;20506;-42
2020/12/20 03:15:51;;;;;;;6.45;3.40;;;9.30;96.40;;;;;;5047089;28;20464;-43
2020/12/20 03:18:16;;;;;;;8.25;4.15;;;9.30;96.40;;;;;;5047158;28;20411;-43
2020/12/20 03:20:42;;;;;;;10.02;3.80;;;9.30;96.70;;;;;;5046322;28;20115;-44
2020/12/20 03:23:07;;;;;;;6.68;3.50;;;9.30;96.40;;;;;;5047140;28;20650;-44
2020/12/20 03:25:34;;;;;;;5.95;3.10;;;9.40;96.40;;;;;;5047522;28;20021;-44
2020/12/20 03:27:59;;;;;;;6.13;3.63;;;9.30;96.40;;;;;;5046296;28;20082;-43
2020/12/20 03:30:26;;;;;;;7.88;4.00;;;9.40;96.40;;;;;;5046345;28;20037;-43
2020/12/20 03:32:52;;;;;;;5.70;4.03;;;9.40;96.40;;;;;;5046720;28;20798;-43
2020/12/20 03:35:18;;;;;;;5.07;3.42;;;9.40;96.40;;;;;;5046041;28;20086;-43
2020/12/20 03:37:54;;;;;;;6.03;3.67;;;9.40;96.30;;;;;;5046555;28;20112;-44
2020/12/20 03:40:22;;;;;;;5.57;3.50;;;9.40;96.40;;;;;;5047037;28;20036;-43
2020/12/20 03:42:48;;;;;;;5.30;3.00;;;9.40;96.30;;;;;;5046237;28;20058;-43
2020/12/20 03:45:15;;;;;;;5.30;2.78;;;9.40;96.30;;;;;;5046567;28;20439;-44
2020/12/20 03:47:41;;;;;;;5.93;3.75;;;9.40;96.30;;;;;;5046372;28;20036;-42
2020/12/20 03:50:07;;;;;;;6.55;3.50;;;9.40;96.40;;;;;;5046115;28;20044;-43
2020/12/20 03:52:32;;;;;;;4.55;3.40;;;9.40;96.40;;;;;;5046523;28;20139;-44
2020/12/20 03:54:58;;;;;;;8.23;4.10;;;9.40;96.60;;;;;;5045895;28;20033;-43
2020/12/20 03:57:23;;;;;;;5.68;3.00;;;9.40;96.60;;;;;;5046463;28;20090;-43
2020/12/20 03:59:49;;;;;;;6.28;3.20;;;9.30;96.30;;;;;;5046294;28;20033;-43
2020/12/20 04:02:14;;;;;;;6.40;2.90;;;9.40;96.30;;;;;;5045908;28;20029;-43
2020/12/20 04:04:40;;;;;;;5.38;3.47;;;9.40;96.30;;;;;;5045866;28;20025;-43
2020/12/20 04:07:05;;;;;;;5.30;2.63;;;9.30;96.30;;;;;;5046136;28;20049;-43
2020/12/20 04:09:31;;;;;;;5.18;2.97;;;9.40;96.30;;;;;;5046250;28;20041;-44
2020/12/20 04:11:56;;;;;;;6.45;3.08;;;9.30;96.30;;;;;;5046233;28;20025;-43
2020/12/20 04:14:22;;;;;;;6.15;3.70;;;9.30;96.30;;;;;;5046501;28;20064;-42
2020/12/20 04:16:48;;;;;;;5.95;3.30;;;9.40;96.30;;;;;;5045602;28;20061;-42
2020/12/20 04:19:14;;;;;;;4.35;2.88;;;9.40;96.30;;;;;;5046113;28;20072;-42
2020/12/20 04:21:40;;;;;;;5.97;3.20;;;9.40;96.30;;;;;;5046455;28;20128;-42
2020/12/20 04:24:05;;;;;;;5.30;3.40;;;9.40;96.30;;;;;;5045851;28;20121;-43
2020/12/20 04:26:31;;;;;;;3.75;2.88;;;9.40;96.30;;;;;;5046265;28;20021;-43
2020/12/20 04:28:56;;;;;;;4.40;2.80;;;9.30;96.30;;;;;;5045855;28;20095;-43
2020/12/20 04:31:23;;;;;;;8.07;3.55;;;9.30;96.30;;;;;;5045412;28;20103;-43
2020/12/20 04:33:49;;;;;;;8.10;3.10;;;9.40;96.30;;;;;;5045730;28;20348;-43
2020/12/20 04:36:15;;;;;;;5.70;2.63;;;9.30;96.30;;;;;;5046190;28;20413;-43
2020/12/20 04:38:41;;;;;;;5.38;2.55;;;9.30;96.30;;;;;;5045869;28;20116;-43
2020/12/20 04:41:08;;;;;;;4.40;2.78;;;9.30;96.30;;;;;;5046269;28;20052;-43
2020/12/20 04:43:33;;;;;;;7.03;3.10;;;9.30;96.20;;;;;;5050038;28;20060;-43
2020/12/20 04:45:59;;;;;;;5.43;3.25;;;9.30;96.30;;;;;;5049623;28;20560;-43
2020/12/20 04:48:36;;;;;;;5.80;2.90;;;9.30;96.30;;;;;;5049635;28;20068;-42
2020/12/20 04:51:04;;;;;;;5.55;3.08;;;9.30;96.30;;;;;;5049746;28;20037;-42
2020/12/20 04:53:30;;;;;;;5.55;3.08;;;9.30;96.30;;;;;;5049489;28;20464;-42
2020/12/20 04:56:01;;;;;;;6.72;2.85;;;9.30;96.30;;;;;;5049448;28;20032;-43
2020/12/20 04:58:27;;;;;;;8.02;3.00;;;9.30;96.30;;;;;;5049253;28;20021;-43
2020/12/20 05:00:53;;;;;;;5.25;3.15;;;9.30;96.30;;;;;;5049214;28;20131;-43
2020/12/20 05:03:18;;;;;;;8.13;3.33;;;9.30;96.20;;;;;;5049592;28;20025;-42
2020/12/20 05:05:44;;;;;;;9.25;3.75;;;9.40;96.30;;;;;;5049307;28;20055;-43
2020/12/20 05:08:13;;;;;;;7.65;3.03;;;9.30;96.40;;;;;;5049253;28;20596;-43
2020/12/20 05:10:40;;;;;;;6.70;2.92;;;9.30;96.30;;;;;;5049305;28;20040;-43
2020/12/20 05:13:06;;;;;;;7.03;2.95;;;9.30;96.30;;;;;;5049179;28;20029;-43
2020/12/20 05:15:31;;;;;;;5.22;2.78;;;9.30;96.30;;;;;;5049626;28;20125;-43
2020/12/20 05:18:17;;;;;;;5.82;2.47;;;9.30;96.30;;;;;;5049088;28;20108;-43
2020/12/20 05:20:44;;;;;;;3.88;2.40;;;9.30;96.30;;;;;;5048903;28;20021;-44
2020/12/20 05:23:12;;;;;;;5.78;3.17;;;9.30;96.30;;;;;;5049022;28;20032;-42
2020/12/20 05:25:41;;;;;;;6.35;2.80;;;9.30;96.30;;;;;;5048885;28;20021;-43
2020/12/20 05:28:08;;;;;;;8.25;2.40;;;9.30;96.30;;;;;;5048980;28;20036;-43
2020/12/20 05:30:33;;;;;;;8.85;3.28;;;9.30;96.30;;;;;;5048828;28;20099;-43
2020/12/20 05:32:59;;;;;;;6.65;2.90;;;9.30;96.30;;;;;;5049023;28;20029;-43
2020/12/20 05:35:25;;;;;;;6.45;3.05;;;9.30;96.30;;;;;;5048373;28;20405;-43
2020/12/20 05:37:50;;;;;;;5.00;3.15;;;9.30;96.30;;;;;;5048871;28;20374;-43
2020/12/20 05:40:30;;;;;;;3.60;2.63;;;9.30;96.30;;;;;;5048622;28;20134;-43
2020/12/20 05:42:59;;;;;;;5.07;2.67;;;9.30;96.30;;;;;;5048677;28;20033;-43
2020/12/20 05:45:27;;;;;;;6.22;2.90;;;9.30;96.30;;;;;;5048821;28;20040;-43
2020/12/20 05:47:53;;;;;;;6.68;2.90;;;9.30;96.30;;;;;;5048060;28;20098;-43
2020/12/20 05:50:19;;;;;;;6.65;3.05;;;9.30;96.30;;;;;;5048221;28;20699;-43
2020/12/20 05:53:00;;;;;;;8.77;3.42;;;9.30;96.30;;;;;;5048577;28;20472;-43
2020/12/20 05:55:37;;;;;;;5.40;2.60;;;9.30;96.30;;;;;;5048145;28;20427;-44
2020/12/20 05:58:13;;;;;;;7.30;2.63;;;9.30;96.50;;;;;;5048200;28;20472;-43
2020/12/20 06:00:43;;;;;;;5.95;2.85;;;9.30;96.20;;;;;;5048581;28;20047;-43
2020/12/20 06:03:10;;;;;;;6.28;3.00;;;9.30;96.50;;;;;;5047569;28;20020;-43
2020/12/20 06:05:46;;;;;;;10.23;3.58;;;9.30;96.50;;;;;;5048526;28;20021;-44
2020/12/20 06:08:22;;;;;;;5.60;2.78;;;9.30;96.20;;;;;;5048403;28;20045;-44
2020/12/20 06:10:52;;;;;;;6.18;2.67;;;9.30;96.20;;;;;;5047648;28;20045;-44
2020/12/20 06:13:23;;;;;;;5.03;2.38;;;9.30;96.20;;;;;;5048184;28;20052;-43
2020/12/20 06:15:53;;;;;;;3.63;2.70;;;9.30;96.20;;;;;;5047471;28;20391;-43
2020/12/20 06:18:29;;;;;;;4.25;2.22;;;9.30;96.20;;;;;;5048205;28;20598;-42
2020/12/20 06:20:57;;;;;;;8.48;2.60;;;9.30;96.20;;;;;;5048052;28;20029;-43
2020/12/20 06:23:28;;;;;;;7.15;2.85;;;9.30;96.20;;;;;;5047994;28;20032;-43
2020/12/20 06:25:54;;;;;;;5.40;2.42;;;9.30;96.20;;;;;;5047854;28;20430;-43
2020/12/20 06:28:23;;;;;;;6.63;2.58;;;9.30;96.20;;;;;;5047812;28;20086;-44
2020/12/20 06:30:49;;;;;;;6.38;2.65;;;9.30;96.20;;;;;;5047565;28;20132;-42
2020/12/20 06:33:44;;;;;;;4.85;2.08;;;9.40;96.20;;;;;;5048208;28;20025;-42
2020/12/20 06:36:15;;;;;;;6.97;2.35;;;9.40;96.20;;;;;;5047853;28;20105;-43
2020/12/20 06:38:41;;;;;;;4.38;2.47;;;9.40;96.20;;;;;;5047331;28;20488;-43
2020/12/20 06:41:07;;;;;;;8.48;2.33;;;9.40;96.20;;;;;;5047917;28;20036;-43
2020/12/20 06:43:34;;;;;;;6.43;2.50;;;9.40;96.20;;;;;;5048050;28;20538;-43
2020/12/20 06:46:01;;;;;;;7.65;3.08;;;9.40;96.20;;;;;;5046952;28;20365;-43
2020/12/20 06:48:36;;;;;;;8.45;2.75;;;9.40;96.30;;;;;;5047347;28;20028;-43
2020/12/20 06:51:04;;;;;;;8.00;3.05;;;9.40;96.20;;;;;;5047437;28;20025;-42
2020/12/20 06:53:51;;;;;;;5.82;2.60;;;9.40;96.20;;;;;;5047706;28;20017;-43
2020/12/20 06:56:19;;;;;;;13.52;3.60;;;9.40;96.20;;;;;;5047340;28;20033;-42
2020/12/20 06:58:45;;;;;;;5.72;2.60;;;9.50;96.20;;;;;;5046921;28;20025;-43
2020/12/20 07:01:10;;;;;;;7.32;3.20;;;9.50;96.20;;;;;;5047514;28;20029;-43
2020/12/20 07:03:40;;;;;;;6.35;2.50;;;9.50;96.10;;;;;;5047256;28;20593;-42
2020/12/20 07:06:11;;;;;;;6.38;2.63;;;9.50;96.00;;;;;;5046671;28;20013;-43
2020/12/20 07:08:37;;;;;;;5.32;2.85;;;9.50;96.00;;;;;;5047465;28;20049;-43
2020/12/20 07:11:17;;;;;;;7.13;3.10;;;9.40;96.00;;;;;;5046908;28;20032;-45
2020/12/20 07:13:45;;;;;;;8.40;3.40;;;9.40;96.00;;;;;;5046405;28;20492;-43
2020/12/20 07:16:15;;;;;;;4.78;2.65;;;9.40;96.00;;;;;;5047099;28;20510;-43
2020/12/20 07:18:52;;;;;;;9.20;2.80;;;9.30;96.10;;;;;;5047198;28;20029;-43
2020/12/20 07:21:18;;;;;;;12.68;3.30;;;9.30;96.10;;;;;;5047004;28;20112;-43
2020/12/20 07:23:49;;;;;;;5.80;2.72;;;9.30;96.20;;;;;;5046886;28;20108;-43
2020/12/20 07:26:15;;;;;;;10.20;3.20;;;9.30;96.20;;;;;;5046869;28;20033;-43
2020/12/20 07:28:41;;;;;;;8.27;2.90;;;9.30;96.20;;;;;;5046311;28;20025;-43
2020/12/20 07:31:19;;;;;;;8.98;2.42;;;9.30;96.20;;;;;;5046926;28;20048;-43
2020/12/20 07:33:45;;;;;;;11.25;3.20;;;9.30;96.20;;;;;;5046188;28;20100;-43
2020/12/20 07:36:11;;;;;;;6.47;3.20;;;9.20;96.20;;;;;;5046523;28;20427;-43
2020/12/20 07:38:37;;;;;;;9.40;3.13;;;9.20;96.20;;;;;;5046874;28;20406;-43
2020/12/20 07:41:06;;;;;;;13.13;3.40;;;9.20;96.30;;;;;;5046339;28;20032;-43
2020/12/20 07:43:32;;;;;;;8.80;3.28;;;9.20;96.30;;;;;;5046878;28;20090;-43
2020/12/20 07:46:04;;;;;;;7.68;3.30;;;9.20;96.30;;;;;;5046915;28;20044;-44
2020/12/20 07:48:29;;;;;;;11.83;3.20;;;9.20;96.30;;;;;;5046433;28;20024;-42
2020/12/20 07:51:21;;;;;;;10.18;3.10;;;9.20;96.30;;;;;;5045756;28;20037;-43
2020/12/20 07:54:10;;;;;;;8.88;3.40;;;9.20;96.30;;;;;;5045534;28;20100;-42
2020/12/20 07:56:41;;;;;;;5.22;2.85;;;9.10;96.30;;;;;;5033984;28;20033;-42
2020/12/20 07:59:18;;;;;;;10.13;3.33;;;9.10;96.30;;;;;;5045731;28;20155;-43
2020/12/20 08:01:46;;;;;;;7.80;3.10;;;9.10;96.30;;;;;;5045659;28;20017;-42
2020/12/20 08:04:22;;;;;;;6.97;2.78;;;9.10;96.30;;;;;;5043024;28;20032;-41
2020/12/20 08:06:49;;;;;;;10.10;3.38;;;9.10;96.30;;;;;;5045158;28;20496;-43
2020/12/20 08:09:17;;;;;;;6.40;3.00;;;9.10;96.30;;;;;;5045121;28;20037;-42
2020/12/20 08:11:44;;;;;;;6.20;3.13;;;9.10;96.40;;;;;;5045973;28;20033;-43
2020/12/20 08:14:20;;;;;;;7.25;2.78;;;9.10;96.40;;;;;;5045991;28;20040;-44
2020/12/20 08:16:49;;;;;;;7.35;2.97;;;9.10;96.40;;;;;;5045132;28;20028;-44
2020/12/20 08:19:16;;;;;;;4.60;2.08;;;9.10;96.40;;;;;;5043727;28;20494;-43
2020/12/20 08:22:13;;;;;;;8.90;2.50;;;9.10;96.40;;;;;;5044661;28;20469;-41
2020/12/20 08:24:44;;;;;;;6.50;2.78;;;9.10;96.40;;;;;;5045699;28;20052;-44
2020/12/20 08:27:18;;;;;;;9.25;4.07;;;9.10;96.40;;;;;;5045470;28;20083;-44
2020/12/20 08:29:49;;;;;;;5.28;2.72;;;9.10;96.40;;;;;;5044611;28;20041;-44
2020/12/20 08:32:19;;;;;;;7.70;2.92;;;9.10;96.30;;;;;;5045409;28;20029;-43
2020/12/20 08:34:46;;;;;;;9.63;3.30;;;9.20;96.40;;;;;;5045215;28;20025;-43
2020/12/20 08:37:17;;;;;;;5.95;2.75;;;9.20;96.40;;;;;;5044976;28;20048;-43
2020/12/20 08:39:43;;;;;;;9.68;3.10;;;9.20;96.40;;;;;;5045306;28;20040;-43
2020/12/20 08:42:14;;;;;;;5.40;2.90;;;9.20;96.40;;;;;;5045907;28;20037;-43
2020/12/20 08:44:49;;;;;;;8.88;2.80;;;9.20;96.40;;;;;;5044603;28;20108;-43
2020/12/20 08:47:19;;;;;;;7.97;3.13;;;9.20;96.30;;;;;;5044902;28;20087;-43
2020/12/20 08:49:59;;;;;;;8.38;2.85;;;9.20;96.30;;;;;;5044638;28;20025;-42
2020/12/20 08:52:29;;;;;;;7.95;2.55;;;9.20;96.30;;;;;;5045082;28;20159;-43
2020/12/20 08:54:56;;;;;;;6.00;3.15;;;9.30;96.30;;;;;;5044969;28;20032;-43
2020/12/20 08:57:29;;;;;;;11.05;3.30;;;9.30;96.30;;;;;;5044190;28;20044;-42
2020/12/20 09:00:07;;;;;;;9.55;3.42;;;9.30;96.30;;;;;;5044919;28;20035;-43
2020/12/20 09:02:32;;;;;;;11.38;3.33;;;9.30;96.30;;;;;;5045710;28;20206;-43
2020/12/20 09:05:04;;;;;;;11.18;3.80;;;9.40;96.30;;;;;;5044411;28;20480;-43
2020/12/20 09:07:35;;;;;;;10.70;3.53;;;9.40;96.30;;;;;;5062255;28;20060;-43
2020/12/20 09:10:08;;;;;;;11.15;3.38;;;9.40;96.30;;;;;;5064894;28;20040;-43
2020/12/20 09:12:34;;;;;;;6.97;2.92;;;9.40;96.20;;;;;;5064815;28;20044;-43
2020/12/20 09:15:03;;;;;;;7.95;3.20;;;9.40;96.20;;;;;;5064699;28;20077;-43
2020/12/20 09:17:37;;;;;;;7.30;3.17;;;9.50;96.20;;;;;;5065032;28;20052;-42
2020/12/20 09:20:05;;;;;;;11.35;2.90;;;9.50;96.10;;;;;;5064232;28;20388;-43
2020/12/20 09:22:54;;;;;;;10.93;4.40;;;9.50;96.10;;;;;;5065082;28;20063;-42
2020/12/20 09:25:41;;;;;;;10.70;3.33;;;9.50;96.10;;;;;;5064382;28;20063;-43
2020/12/20 09:28:08;;;;;;;9.73;3.30;;;9.50;96.10;;;;;;5066475;28;20388;-43
2020/12/20 09:30:36;;;;;;;10.27;3.20;;;9.60;96.10;;;;;;5067930;28;20420;-43
2020/12/20 09:33:14;;;;;;;14.07;4.85;;;9.60;96.10;;;;;;5067759;28;20388;-43
2020/12/20 09:35:53;;;;;;;8.27;2.88;;;9.60;96.00;;;;;;5067922;28;20476;-42
2020/12/20 09:38:20;;;;;;;12.25;5.15;;;9.60;96.00;;;;;;5068162;28;20031;-44
2020/12/20 09:40:45;;;;;;;8.07;3.55;;;9.70;96.00;;;;;;5067477;28;20511;-42
2020/12/20 09:43:20;;;;;;;10.40;3.35;;;9.60;95.90;;;;;;5064393;28;20078;-43
2020/12/20 09:45:46;;;;;;;7.63;3.00;;;9.70;95.90;;;;;;5027662;28;20504;-44
2020/12/20 09:48:12;;;;;;;11.85;3.67;;;9.70;95.90;;;;;;5027479;28;20017;-43
2020/12/20 09:50:38;;;;;;;8.98;3.28;;;9.80;95.90;;;;;;5028271;28;20683;-43
2020/12/20 09:53:04;;;;;;;10.35;3.22;;;9.80;95.90;;;;;;5028402;28;20021;-43
2020/12/20 09:55:31;;;;;;;10.80;3.92;;;9.80;95.80;;;;;;5027654;28;20100;-42
2020/12/20 09:57:57;;;;;;;11.02;3.70;;;9.80;95.80;;;;;;5028141;28;20080;-44
2020/12/20 10:00:23;;;;;;;9.20;3.17;;;9.80;95.80;;;;;;5028311;28;20451;-43
2020/12/20 10:02:48;;;;;;;9.40;3.15;;;9.90;95.80;;;;;;5028165;28;20072;-43
2020/12/20 10:05:14;;;;;;;13.90;4.22;;;9.90;95.80;;;;;;5046960;28;20032;-43
2020/12/20 10:07:39;;;;;;;7.75;3.50;;;9.90;95.70;;;;;;5065309;28;20053;-44
2020/12/20 10:10:05;;;;;;;16.52;4.32;;;9.90;95.80;;;;;;5066709;28;20164;-43
2020/12/20 10:12:32;;;;;;;14.02;3.53;;;10.00;95.70;;;;;;5056107;28;20017;-43
2020/12/20 10:14:59;;;;;;;10.98;3.40;;;10.00;95.70;;;;;;5046376;28;20025;-43
2020/12/20 10:17:25;;;;;;;8.15;3.83;;;10.00;95.60;;;;;;5047229;28;20032;-44
2020/12/20 10:19:53;;;;;;;10.82;3.55;;;10.10;95.60;;;;;;5047441;28;20017;-43
2020/12/20 10:22:19;;;;;;;11.55;3.50;;;10.10;95.50;;;;;;5047363;28;20025;-43
2020/12/20 10:24:45;;;;;;;14.18;3.47;;;10.10;95.50;;;;;;5047415;28;20051;-43
2020/12/20 10:27:10;;;;;;;14.57;4.13;;;10.10;95.40;;;;;;5047368;28;20512;-43
2020/12/20 10:29:36;;;;;;;7.15;3.38;;;10.20;95.40;;;;;;5046803;28;20035;-42
2020/12/20 10:32:02;;;;;;;14.73;4.20;;;10.20;95.40;;;;;;5047042;28;20109;-43
2020/12/20 10:34:27;;;;;;;8.13;3.40;;;10.20;95.30;;;;;;5047526;28;20035;-44
2020/12/20 10:36:53;;;;;;;11.15;3.63;;;10.20;95.40;;;;;;5047156;28;20035;-42
2020/12/20 10:39:19;;;;;;;10.80;3.13;;;10.20;95.40;;;;;;5046275;28;20642;-44
2020/12/20 10:41:45;;;;;;;15.02;3.72;;;10.20;95.30;;;;;;5047384;28;20031;-43
2020/12/20 10:44:10;;;;;;;12.65;3.10;;;10.20;95.30;;;;;;5045878;28;20481;-43
2020/12/20 10:46:36;;;;;;;7.88;3.25;;;10.20;95.30;;;;;;5046930;28;20017;-42
2020/12/20 10:49:04;;;;;;;10.73;3.45;;;10.30;95.40;;;;;;5046874;28;20502;-45
2020/12/20 10:51:30;;;;;;;11.38;3.00;;;10.30;95.40;;;;;;5047548;28;20132;-43
2020/12/20 10:53:56;;;;;;;10.63;3.33;;;10.30;95.20;;;;;;5054750;28;20021;-43
2020/12/20 10:56:22;;;;;;;7.60;2.63;;;10.40;95.20;;;;;;5056538;28;20111;-43
2020/12/20 10:58:48;;;;;;;10.13;2.80;;;10.40;95.20;;;;;;5060363;28;20021;-44
2020/12/20 11:01:16;;;;;;;14.30;4.18;;;10.40;95.20;;;;;;5050804;28;20455;-43
2020/12/20 11:03:43;;;;;;;10.50;3.47;;;10.40;95.30;;;;;;5041123;28;20377;-43
2020/12/20 11:06:08;;;;;;;14.02;3.40;;;10.40;95.10;;;;;;5056797;28;20070;-43
2020/12/20 11:08:34;;;;;;;9.35;3.38;;;10.50;95.10;;;;;;5060209;28;20052;-43
2020/12/20 11:10:59;;;;;;;14.48;3.40;;;10.50;95.00;;;;;;5052179;28;20040;-42
2020/12/20 11:13:25;;;;;;;14.05;4.72;;;10.50;95.00;;;;;;5066597;28;20028;-43
2020/12/20 11:15:50;;;;;;;16.67;4.07;;;10.40;94.90;;;;;;5066967;28;20025;-44
2020/12/20 11:18:16;;;;;;;14.75;4.00;;;10.40;94.90;;;;;;5067401;28;20020;-44
2020/12/20 11:20:41;;;;;;;12.95;4.13;;;10.50;94.90;;;;;;5067189;28;20405;-43
2020/12/20 11:23:07;;;;;;;10.68;3.67;;;10.60;94.80;;;;;;5067522;28;20054;-43
2020/12/20 11:25:33;;;;;;;14.27;4.72;;;10.60;94.70;;;;;;5067417;28;20029;-43
2020/12/20 11:27:59;;;;;;;15.00;4.15;;;10.60;94.50;;;;;;5066734;28;20434;-43
2020/12/20 11:30:24;;;;;;;11.50;3.95;;;10.70;94.60;;;;;;5066790;28;20032;-43
2020/12/20 11:32:50;;;;;;;8.40;3.17;;;10.70;94.60;;;;;;5066914;28;20016;-44
2020/12/20 11:35:16;;;;;;;12.00;4.32;;;10.80;94.60;;;;;;5066699;28;20423;-44
2020/12/20 11:37:43;;;;;;;13.30;3.78;;;10.90;94.40;;;;;;5067096;28;20052;-43
2020/12/20 11:40:09;;;;;;;12.77;4.10;;;10.90;94.20;;;;;;5052374;28;20488;-43
2020/12/20 11:42:35;;;;;;;18.50;4.85;;;10.90;94.00;;;;;;5046776;28;20028;-44
2020/12/20 11:45:00;;;;;;;12.88;4.45;;;11.00;93.90;;;;;;5046540;28;20578;-43
2020/12/20 11:47:26;;;;;;;20.17;5.85;;;11.00;94.00;;;;;;5046799;28;20024;-44
2020/12/20 11:49:51;;;;;;;21.25;5.43;;;11.00;93.80;;;;;;5047203;28;20041;-43
2020/12/20 11:52:17;;;;;;;17.83;4.78;;;11.00;93.70;;;;;;5047164;28;20097;-42
2020/12/20 11:54:43;;;;;;;21.08;6.20;;;10.90;93.50;;;;;;5035013;28;20087;-45
2020/12/20 11:57:08;;;;;;;17.23;5.28;;;10.90;93.50;;;;;;5027478;28;20413;-43
2020/12/20 11:59:33;;;;;;;14.18;4.85;;;10.90;93.60;;;;;;5027111;28;20033;-44
2020/12/20 12:02:00;;;;;;;12.07;5.45;;;10.90;93.60;;;;;;5026182;28;20096;-42
2020/12/20 12:04:26;;;;;;;14.10;4.78;;;10.90;93.80;;;;;;5027098;28;20033;-43
2020/12/20 12:06:52;;;;;;;11.30;4.45;;;10.90;93.70;;;;;;5026475;28;20139;-42
2020/12/20 12:09:17;;;;;;;14.93;5.07;;;11.00;93.70;;;;;;5034031;28;20052;-42
2020/12/20 12:11:43;;;;;;;11.48;4.55;;;11.00;93.60;;;;;;5047030;28;20144;-42
2020/12/20 12:14:08;;;;;;;16.90;5.10;;;11.10;93.50;;;;;;5046583;28;20044;-44
2020/12/20 12:16:34;;;;;;;16.20;5.70;;;11.10;93.50;;;;;;5046953;28;20025;-43
2020/12/20 12:18:59;;;;;;;14.40;4.90;;;11.10;93.30;;;;;;5046577;28;20060;-43
2020/12/20 12:21:25;;;;;;;14.05;5.35;;;11.10;93.30;;;;;;5053821;28;20460;-43
2020/12/20 12:23:50;;;;;;;17.95;4.93;;;11.20;93.40;;;;;;5055397;28;20021;-44
2020/12/20 12:26:16;;;;;;;20.92;5.88;;;11.20;93.30;;;;;;5056848;28;20483;-43
2020/12/20 12:28:42;;;;;;;13.00;4.93;;;11.20;92.90;;;;;;5055773;28;20051;-43
2020/12/20 12:31:07;;;;;;;15.98;4.82;;;11.20;93.00;;;;;;5054660;28;20075;-44
2020/12/20 12:33:33;;;;;;;22.50;5.32;;;11.20;92.90;;;;;;5058577;28;20028;-44
2020/12/20 12:35:59;;;;;;;15.05;4.30;;;11.20;92.70;;;;;;5048465;28;20020;-43
2020/12/20 12:38:24;;;;;;;16.20;4.95;;;11.20;92.70;;;;;;5056242;28;20033;-42
2020/12/20 12:40:50;;;;;;;12.60;4.30;;;11.20;92.80;;;;;;5055274;28;20060;-44
2020/12/20 12:43:15;;;;;;;13.00;4.20;;;11.20;92.80;;;;;;5056302;28;20032;-43
2020/12/20 12:45:41;;;;;;;15.60;4.43;;;11.20;92.60;;;;;;5056190;28;20013;-44
2020/12/20 12:48:07;;;;;;;16.52;4.97;;;11.30;92.50;;;;;;5057351;28;20048;-45
2020/12/20 12:50:34;;;;;;;16.73;4.35;;;11.20;92.70;;;;;;5057655;28;20565;-44
2020/12/20 12:53:00;;;;;;;15.70;4.45;;;11.30;92.70;;;;;;5066143;28;20032;-44
2020/12/20 12:55:28;;;;;;;17.80;4.30;;;11.30;92.50;;;;;;5066503;28;20416;-43
2020/12/20 12:57:56;;;;;;;16.77;4.40;;;11.40;92.60;;;;;;5065751;28;20443;-44
2020/12/20 13:00:25;;;;;;;13.07;4.35;;;11.30;92.80;;;;;;5058966;28;20064;-43